Time;durP1;ratioP1;P1;durP2;ratioP2;P2;SDS_P1;SDS_P2;PMS_P1;PMS_P2;Temp;Humidity;BMP_temperature;BMP_pressure;BME280_temperature;BME280_humidity;BME280_pressure;Samples;Min_cycle;Max_cycle;Signal;HPM_P1;HPM_P2
2022/05/28 00:00:22;;;;;;;1.87;1.77;;;;;;;12.22;83.11;94223.92;1654553;86;21135;-46
2022/05/28 00:02:50;;;;;;;2.35;1.60;;;;;;;12.23;82.86;94215.80;1654559;86;21083;-47
2022/05/28 00:05:17;;;;;;;1.75;1.50;;;;;;;12.17;82.47;94214.16;1635576;86;20968;-47
2022/05/28 00:07:44;;;;;;;1.95;1.67;;;;;;;12.12;82.51;94214.17;1654474;86;21150;-46
2022/05/28 00:10:12;;;;;;;2.00;1.90;;;;;;;12.10;82.79;94213.14;1654514;86;20989;-46
2022/05/28 00:12:41;;;;;;;1.90;1.80;;;;;;;12.11;83.00;94214.03;1635975;86;21040;-46
2022/05/28 00:15:10;;;;;;;2.45;1.80;;;;;;;12.10;83.17;94216.64;1654483;86;21496;-46
2022/05/28 00:17:36;;;;;;;1.70;1.60;;;;;;;12.10;83.56;94217.27;1654688;86;21467;-47
2022/05/28 00:20:06;;;;;;;3.22;1.45;;;;;;;12.15;83.51;94209.13;1635834;86;21820;-46
2022/05/28 00:22:39;;;;;;;1.30;1.30;;;;;;;12.19;83.31;94213.84;1654536;86;21067;-47
2022/05/28 00:25:07;;;;;;;1.40;1.40;;;;;;;12.22;83.54;94215.66;1654847;86;20968;-46
2022/05/28 00:27:34;;;;;;;1.40;1.40;;;;;;;12.30;83.22;94217.44;1654575;86;21055;-47
2022/05/28 00:30:01;;;;;;;1.50;1.40;;;;;;;12.32;82.65;94214.38;1680966;85;21127;-46
2022/05/28 00:32:28;;;;;;;1.55;1.50;;;;;;;12.29;82.18;94218.05;1654665;86;21290;-46
2022/05/28 00:34:56;;;;;;;1.60;1.50;;;;;;;12.23;82.10;94232.34;1654711;86;21499;-46
2022/05/28 00:37:23;;;;;;;1.37;1.37;;;;;;;12.22;82.91;94234.95;1654579;86;21056;-45
2022/05/28 00:39:50;;;;;;;1.60;1.50;;;;;;;12.26;82.65;94245.19;1654667;86;21460;-46
2022/05/28 00:42:16;;;;;;;2.52;1.60;;;;;;;12.24;82.53;94248.29;1654603;86;20984;-46
2022/05/28 00:44:43;;;;;;;1.40;1.40;;;;;;;12.24;83.02;94248.29;1654518;86;21285;-47
2022/05/28 00:47:09;;;;;;;1.30;1.30;;;;;;;12.30;83.42;94245.77;1654525;86;21051;-46
2022/05/28 00:49:36;;;;;;;1.60;1.50;;;;;;;12.36;82.80;94240.38;1654685;86;20988;-46
2022/05/28 00:52:07;;;;;;;1.52;1.50;;;;;;;12.39;83.03;94236.67;1654477;86;21017;-46
2022/05/28 00:54:43;;;;;;;1.52;1.52;;;;;;;12.41;82.50;94233.59;1655037;86;21069;-46
2022/05/28 00:57:12;;;;;;;1.95;1.60;;;;;;;12.38;82.44;94222.13;1654637;85;21099;-47
2022/05/28 00:59:39;;;;;;;1.70;1.60;;;;;;;12.39;82.55;94227.80;1654599;86;21084;-47
2022/05/28 01:02:49;;;;;;;1.35;1.35;;;;;;;12.34;82.13;94221.55;1654656;86;21016;-46
2022/05/28 01:06:07;;;;;;;1.40;1.40;;;;;;;12.27;82.67;94218.39;1655059;86;21444;-46
2022/05/28 01:08:41;;;;;;;1.75;1.65;;;;;;;12.31;83.13;94214.23;1680887;85;21079;-47
2022/05/28 01:11:35;;;;;;;1.72;1.55;;;;;;;12.36;82.66;94217.70;1654919;86;21444;-45
2022/05/28 01:14:08;;;;;;;1.90;1.80;;;;;;;12.35;82.68;94208.51;1654539;85;21035;-46
2022/05/28 01:16:42;;;;;;;2.35;1.77;;;;;;;12.30;82.87;94193.36;1655202;86;21452;-46
2022/05/28 01:19:53;;;;;;;2.22;1.92;;;;;;;12.28;83.02;94204.11;1654586;86;21049;-46
2022/05/28 01:23:06;;;;;;;1.80;1.70;;;;;;;12.23;82.89;94210.28;1654647;86;21032;-47
2022/05/28 01:25:42;;;;;;;;;;;;;;;12.18;83.20;94203.27;1657139;86;21504;-46
2022/05/28 01:28:19;;;;;;;2.45;1.90;;;;;;;12.13;83.60;94210.22;1654721;86;20488;-46
2022/05/28 01:30:46;;;;;;;1.90;1.80;;;;;;;12.10;84.29;94196.59;1635608;86;21020;-46
2022/05/28 01:33:14;;;;;;;1.87;1.72;;;;;;;12.08;84.48;94196.30;1654938;86;20994;-46
2022/05/28 01:35:41;;;;;;;2.30;2.10;;;;;;;12.06;84.49;94206.41;1654582;86;20972;-46
2022/05/28 01:38:08;;;;;;;1.90;1.80;;;;;;;12.05;84.65;94204.89;1654630;86;21215;-46
2022/05/28 01:40:35;;;;;;;1.95;1.85;;;;;;;12.05;84.96;94189.72;1654476;86;21068;-46
2022/05/28 01:43:05;;;;;;;1.90;1.80;;;;;;;12.09;85.01;94204.72;1680264;85;21067;-46
2022/05/28 01:45:31;;;;;;;1.95;1.85;;;;;;;12.11;84.73;94207.14;1654550;86;21055;-46
2022/05/28 01:48:01;;;;;;;1.70;1.60;;;;;;;12.12;84.76;94221.06;1680778;83;20965;-47
2022/05/28 01:50:30;;;;;;;2.67;1.80;;;;;;;12.10;84.18;94208.37;1654641;86;21773;-46
2022/05/28 01:52:57;;;;;;;2.00;1.90;;;;;;;12.06;84.58;94196.77;1654404;86;20985;-46
2022/05/28 01:55:25;;;;;;;2.30;2.20;;;;;;;12.07;84.96;94191.39;1635823;86;21028;-47
2022/05/28 01:57:53;;;;;;;1.95;1.85;;;;;;;12.04;85.56;94201.98;1654497;86;21064;-46
2022/05/28 02:00:20;;;;;;;1.50;1.50;;;;;;;12.04;85.52;94186.82;1654570;86;21024;-46
2022/05/28 02:02:50;;;;;;;1.80;1.70;;;;;;;12.04;85.43;94190.95;1654636;86;21305;-46
2022/05/28 02:05:18;;;;;;;1.70;1.60;;;;;;;12.06;85.61;94195.38;1654487;86;21467;-46
2022/05/28 02:07:46;;;;;;;1.90;1.80;;;;;;;12.07;85.41;94185.87;1654641;85;21444;-46
2022/05/28 02:10:16;;;;;;;1.90;1.80;;;;;;;12.03;85.71;94190.03;1654469;86;21071;-46
2022/05/28 02:13:03;;;;;;;2.85;2.10;;;;;;;12.03;86.02;94189.44;1654806;86;21443;-45
2022/05/28 02:15:47;;;;;;;2.58;2.15;;;;;;;12.01;85.90;94185.01;1654653;86;21260;-47
2022/05/28 02:18:49;;;;;;;1.90;1.80;;;;;;;12.07;86.34;94178.98;1654976;86;21036;-46
2022/05/28 02:21:24;;;;;;;2.52;2.33;;;;;;;12.16;86.06;94178.16;1654537;86;21518;-45
2022/05/28 02:24:09;;;;;;;2.15;2.00;;;;;;;12.19;86.22;94173.86;1654545;86;21500;-46
2022/05/28 02:26:45;;;;;;;2.65;2.37;;;;;;;12.24;85.78;94171.07;1638533;86;21028;-46
2022/05/28 02:29:12;;;;;;;2.70;2.47;;;;;;;12.22;85.42;94174.89;1654864;86;21135;-45
2022/05/28 02:31:43;;;;;;;2.20;2.10;;;;;;;12.21;85.37;94163.11;1654573;85;20976;-46
2022/05/28 02:34:11;;;;;;;2.40;2.00;;;;;;;12.23;84.98;94161.27;1655120;86;21420;-46
2022/05/28 02:36:40;;;;;;;2.50;2.30;;;;;;;12.22;85.04;94174.29;1654606;86;21032;-46
2022/05/28 02:39:08;;;;;;;3.25;2.50;;;;;;;12.17;85.14;94168.66;1654559;85;20986;-46
2022/05/28 02:41:35;;;;;;;3.42;2.60;;;;;;;12.15;85.46;94169.14;1635478;86;21284;-46
2022/05/28 02:44:02;;;;;;;2.33;2.22;;;;;;;12.15;85.76;94166.39;1679972;85;21103;-46
2022/05/28 02:46:30;;;;;;;2.25;2.15;;;;;;;12.18;85.67;94169.58;1654948;85;21025;-46
2022/05/28 02:48:57;;;;;;;2.20;2.08;;;;;;;12.16;85.41;94174.80;1654726;86;21024;-47
2022/05/28 02:51:23;;;;;;;2.72;2.52;;;;;;;12.17;85.71;94172.19;1654670;86;21505;-47
2022/05/28 02:53:53;;;;;;;3.25;3.05;;;;;;;12.19;85.47;94175.23;1654504;86;21169;-46
2022/05/28 02:56:20;;;;;;;2.95;2.75;;;;;;;12.18;85.30;94173.71;1654440;86;21603;-46
2022/05/28 02:58:47;;;;;;;2.70;2.50;;;;;;;12.16;85.35;94165.75;1657946;86;20984;-46
2022/05/28 03:01:26;;;;;;;3.75;2.85;;;;;;;12.18;85.58;94153.03;1654592;86;21020;-47
2022/05/28 03:03:54;;;;;;;2.25;2.00;;;;;;;12.22;85.56;94158.34;1654931;86;21028;-46
2022/05/28 03:06:21;;;;;;;4.83;2.52;;;;;;;12.24;85.54;94155.27;1654538;86;21913;-46
2022/05/28 03:08:48;;;;;;;2.30;2.10;;;;;;;12.24;85.60;94144.23;1654509;86;21048;-46
2022/05/28 03:11:14;;;;;;;2.27;2.17;;;;;;;12.23;85.63;94147.48;1654651;86;21080;-46
2022/05/28 03:13:41;;;;;;;2.25;2.15;;;;;;;12.19;85.58;94149.64;1654606;86;20972;-45
2022/05/28 03:16:08;;;;;;;2.20;2.10;;;;;;;12.13;85.67;94161.19;1654513;86;20965;-46
2022/05/28 03:18:35;;;;;;;2.77;2.55;;;;;;;12.08;85.70;94165.34;1654475;86;21222;-46
2022/05/28 03:21:02;;;;;;;2.83;2.62;;;;;;;12.07;85.90;94162.44;1654371;86;21059;-47
2022/05/28 03:23:29;;;;;;;3.75;2.70;;;;;;;12.08;85.94;94167.35;1654551;86;21132;-47
2022/05/28 03:25:56;;;;;;;3.30;3.10;;;;;;;12.10;85.99;94170.41;1654487;86;21001;-47
2022/05/28 03:28:23;;;;;;;2.87;2.67;;;;;;;12.05;85.88;94171.80;1654503;86;21155;-47
2022/05/28 03:30:50;;;;;;;2.80;2.60;;;;;;;12.01;86.08;94169.84;1680805;85;21277;-47
2022/05/28 03:33:17;;;;;;;2.80;2.60;;;;;;;12.05;86.63;94168.30;1654428;86;21024;-46
2022/05/28 03:35:44;;;;;;;3.22;2.98;;;;;;;12.11;86.94;94170.55;1654436;86;21024;-47
2022/05/28 03:38:10;;;;;;;3.62;3.42;;;;;;;12.17;86.87;94169.43;1654468;86;21004;-46
2022/05/28 03:40:37;;;;;;;3.60;3.30;;;;;;;12.17;86.58;94168.05;1654572;86;20984;-46
2022/05/28 03:43:06;;;;;;;7.08;3.00;;;;;;;12.17;86.55;94169.43;1654644;85;21270;-46
2022/05/28 03:45:32;;;;;;;3.05;2.85;;;;;;;12.20;86.50;94178.13;1654498;86;21064;-46
2022/05/28 03:47:59;;;;;;;2.90;2.70;;;;;;;12.23;85.99;94170.30;1654566;86;21035;-48
2022/05/28 03:50:26;;;;;;;4.03;2.95;;;;;;;12.21;85.81;94165.09;1654509;86;21044;-46
2022/05/28 03:52:53;;;;;;;2.90;2.70;;;;;;;12.17;85.92;94169.43;1680725;85;21076;-46
2022/05/28 03:55:20;;;;;;;2.90;2.60;;;;;;;12.20;86.39;94164.34;1654620;86;21278;-46
2022/05/28 03:57:47;;;;;;;3.12;2.90;;;;;;;12.23;86.00;94172.30;1654498;86;20973;-46
2022/05/28 04:00:15;;;;;;;3.22;2.83;;;;;;;12.20;85.99;94172.62;1654483;86;21076;-45
2022/05/28 04:02:42;;;;;;;2.77;2.55;;;;;;;12.24;85.98;94177.33;1654828;86;21046;-46
2022/05/28 04:05:09;;;;;;;3.37;3.17;;;;;;;12.26;85.74;94173.48;1654704;86;20988;-45
2022/05/28 04:07:38;;;;;;;3.05;2.85;;;;;;;12.22;85.67;94169.38;1680898;85;21135;-47
2022/05/28 04:10:06;;;;;;;3.33;3.10;;;;;;;12.21;85.78;94168.63;1654647;86;21079;-46
2022/05/28 04:12:34;;;;;;;3.30;3.00;;;;;;;12.18;85.82;94174.31;1654895;86;21023;-46
2022/05/28 04:15:00;;;;;;;3.17;2.98;;;;;;;12.15;85.79;94179.39;1635568;86;21028;-47
2022/05/28 04:17:27;;;;;;;3.05;2.85;;;;;;;12.17;86.08;94179.08;1654696;86;21475;-46
2022/05/28 04:19:54;;;;;;;3.58;3.27;;;;;;;12.20;86.11;94176.75;1654673;86;21762;-46
2022/05/28 04:22:20;;;;;;;5.05;3.45;;;;;;;12.17;86.13;94183.22;1654537;86;20980;-46
2022/05/28 04:24:47;;;;;;;3.72;3.42;;;;;;;12.17;86.15;94182.44;1654649;86;20993;-46
2022/05/28 04:27:14;;;;;;;3.83;3.52;;;;;;;12.16;85.93;94191.34;1654593;86;21016;-46
2022/05/28 04:29:40;;;;;;;3.60;3.35;;;;;;;12.18;85.84;94192.23;1654567;86;21020;-46
2022/05/28 04:32:08;;;;;;;5.37;4.87;;;;;;;12.23;85.88;94188.85;1654636;86;21152;-46
2022/05/28 04:34:35;;;;;;;7.25;6.00;;;;;;;12.24;85.78;94186.98;1654797;86;21031;-46
2022/05/28 04:37:04;;;;;;;5.03;4.53;;;;;;;12.27;86.05;94195.69;1657697;86;21019;-47
2022/05/28 04:39:31;;;;;;;5.62;5.12;;;;;;;12.30;86.00;94200.89;1654830;86;21463;-47
2022/05/28 04:41:57;;;;;;;5.67;5.08;;;;;;;12.31;86.24;94205.95;1654612;86;21496;-46
2022/05/28 04:44:24;;;;;;;4.25;3.72;;;;;;;12.34;86.34;94206.98;1654531;86;21262;-47
2022/05/28 04:46:50;;;;;;;4.55;3.80;;;;;;;12.39;86.34;94194.69;1654930;86;20992;-47
2022/05/28 04:49:18;;;;;;;4.12;3.67;;;;;;;12.48;86.21;94190.47;1654586;86;20989;-47
2022/05/28 04:51:45;;;;;;;3.90;3.58;;;;;;;12.57;85.77;94184.89;1654467;86;21019;-47
2022/05/28 04:54:11;;;;;;;3.80;3.50;;;;;;;12.69;85.53;94190.77;1654704;86;21020;-45
2022/05/28 04:56:39;;;;;;;4.92;3.50;;;;;;;12.83;84.86;94195.52;1654564;86;21162;-46
2022/05/28 04:59:05;;;;;;;3.55;3.25;;;;;;;12.90;84.29;94191.03;1654659;86;21512;-46
2022/05/28 05:01:32;;;;;;;3.47;3.17;;;;;;;12.91;83.64;94193.93;1654554;86;20999;-46
2022/05/28 05:03:58;;;;;;;3.00;2.72;;;;;;;12.91;83.63;94197.44;1655003;86;20996;-47
2022/05/28 05:06:25;;;;;;;3.37;3.10;;;;;;;12.94;83.27;94196.52;1654805;86;21043;-46
2022/05/28 05:08:52;;;;;;;4.17;3.02;;;;;;;12.95;82.71;94195.91;1654632;86;21155;-47
2022/05/28 05:11:19;;;;;;;3.30;3.00;;;;;;;12.95;83.03;94196.69;1635654;86;21449;-47
2022/05/28 05:13:46;;;;;;;4.10;3.40;;;;;;;13.01;82.94;94202.28;1635347;86;21134;-47
2022/05/28 05:16:14;;;;;;;3.37;3.08;;;;;;;13.06;82.52;94197.49;1654607;86;21044;-46
2022/05/28 05:18:42;;;;;;;4.42;3.40;;;;;;;13.12;82.30;94210.13;1654563;86;21111;-46
2022/05/28 05:21:11;;;;;;;3.40;3.10;;;;;;;13.20;81.54;94209.14;1654528;86;21020;-47
2022/05/28 05:23:39;;;;;;;3.17;2.98;;;;;;;13.30;80.91;94217.48;1654716;86;21012;-47
2022/05/28 05:26:18;;;;;;;5.92;3.67;;;;;;;13.41;80.60;94220.44;1654608;86;21560;-48
2022/05/28 05:28:45;;;;;;;3.45;3.15;;;;;;;13.50;79.74;94223.09;1680033;85;21080;-47
2022/05/28 05:31:13;;;;;;;2.87;2.67;;;;;;;13.49;79.11;94216.78;1654549;86;21067;-47
2022/05/28 05:33:40;;;;;;;3.65;3.35;;;;;;;13.54;78.26;94208.45;1654534;86;21379;-47
2022/05/28 05:36:09;;;;;;;4.00;3.30;;;;;;;13.60;78.15;94203.79;1680462;83;21020;-46
2022/05/28 05:38:36;;;;;;;3.87;3.58;;;;;;;13.60;77.25;94207.30;1654643;86;21472;-46
2022/05/28 05:41:04;;;;;;;4.10;3.70;;;;;;;13.57;77.33;94206.11;1654615;86;21491;-47
2022/05/28 05:43:31;;;;;;;4.47;3.45;;;;;;;13.55;77.32;94205.22;1654657;86;20991;-48
2022/05/28 05:46:01;;;;;;;3.25;3.05;;;;;;;13.55;77.31;94208.59;1654509;86;21267;-48
2022/05/28 05:48:28;;;;;;;5.40;4.03;;;;;;;13.55;77.33;94201.68;1654448;86;20965;-51
2022/05/28 05:50:55;;;;;;;3.17;2.95;;;;;;;13.54;77.50;94194.03;1654462;86;21586;-48
2022/05/28 05:53:21;;;;;;;3.60;3.30;;;;;;;13.55;77.76;94190.63;1654726;86;21569;-48
2022/05/28 05:55:48;;;;;;;4.67;3.10;;;;;;;13.54;77.72;94191.27;1654626;86;21495;-47
2022/05/28 05:58:15;;;;;;;3.37;3.08;;;;;;;13.52;77.66;94195.73;1635750;86;21847;-48
2022/05/28 06:00:42;;;;;;;3.98;2.80;;;;;;;13.53;77.38;94194.48;1680752;83;21087;-48
2022/05/28 06:03:16;;;;;;;3.37;3.08;;;;;;;13.54;77.12;94207.07;1654554;86;21000;-47
2022/05/28 06:05:43;;;;;;;5.05;2.70;;;;;;;13.56;77.10;94194.91;1654083;85;21531;-48
2022/05/28 06:08:11;;;;;;;7.40;3.52;;;;;;;13.64;77.23;94187.77;1680738;85;20960;-48
2022/05/28 06:10:39;;;;;;;6.65;3.42;;;;;;;13.79;76.86;94185.73;1654558;86;21286;-48
2022/05/28 06:13:05;;;;;;;4.20;3.80;;;;;;;13.86;76.45;94188.08;1654522;86;21039;-48
2022/05/28 06:15:33;;;;;;;4.67;3.00;;;;;;;13.97;75.84;94214.52;1654530;85;21020;-47
2022/05/28 06:18:00;;;;;;;4.92;3.10;;;;;;;13.99;75.18;94207.25;1654578;86;20977;-47
2022/05/28 06:20:26;;;;;;;4.45;3.30;;;;;;;14.05;75.21;94200.42;1654618;86;21634;-47
2022/05/28 06:22:53;;;;;;;11.78;3.17;;;;;;;14.20;74.97;94195.63;1654475;86;21081;-48
2022/05/28 06:25:20;;;;;;;3.60;3.12;;;;;;;14.39;75.15;94196.88;1635489;86;21460;-47
2022/05/28 06:27:47;;;;;;;3.95;3.45;;;;;;;14.57;75.35;94180.73;1635517;86;21467;-48
2022/05/28 06:30:15;;;;;;;4.22;2.80;;;;;;;14.78;74.72;94183.00;1654584;86;21110;-48
2022/05/28 06:32:42;;;;;;;3.67;3.10;;;;;;;14.98;73.67;94176.02;1654517;86;21095;-47
2022/05/28 06:35:10;;;;;;;4.55;3.40;;;;;;;15.15;72.93;94178.33;1635287;86;21328;-46
2022/05/28 06:37:37;;;;;;;7.15;3.20;;;;;;;15.32;72.37;94170.95;1654425;86;21448;-48
2022/05/28 06:40:05;;;;;;;6.97;3.00;;;;;;;15.45;71.54;94190.73;1654440;86;21077;-47
2022/05/28 06:42:32;;;;;;;5.97;3.65;;;;;;;15.61;70.46;94197.66;1654497;86;21100;-46
2022/05/28 06:44:59;;;;;;;4.40;3.92;;;;;;;15.76;70.15;94195.50;1635522;86;20980;-47
2022/05/28 06:47:27;;;;;;;3.60;3.30;;;;;;;15.94;69.35;94195.87;1654383;86;21257;-47
2022/05/28 06:52:39;;;;;;;2.75;2.47;;;;;;;16.04;67.25;94172.84;1654412;86;21016;-47
2022/05/28 06:55:07;;;;;;;3.15;2.85;;;;;;;16.11;66.91;94180.09;1654316;86;45456;-48
2022/05/28 06:57:34;;;;;;;2.10;1.90;;;;;;;16.13;65.66;94168.50;1654517;86;21023;-48
2022/05/28 07:00:05;;;;;;;2.40;2.30;;;;;;;16.20;65.44;94168.80;1654623;85;21049;-49
2022/05/28 07:02:32;;;;;;;3.12;2.67;;;;;;;16.26;64.40;94173.73;1654466;85;21060;-50
2022/05/28 07:04:58;;;;;;;5.12;2.67;;;;;;;16.27;64.33;94182.84;1654567;85;21413;-47
2022/05/28 07:07:26;;;;;;;4.45;2.12;;;;;;;16.26;65.26;94177.90;1654428;85;20984;-48
2022/05/28 07:09:53;;;;;;;2.27;2.10;;;;;;;16.23;64.27;94173.34;1654487;85;21568;-48
2022/05/28 07:12:20;;;;;;;2.80;2.55;;;;;;;16.16;64.28;94173.83;1654405;86;21503;-46
2022/05/28 07:14:47;;;;;;;3.52;2.40;;;;;;;16.14;64.59;94172.80;1654697;85;21761;-47
2022/05/28 07:17:15;;;;;;;3.27;2.55;;;;;;;16.12;64.47;94164.95;1654409;86;21071;-47
2022/05/28 07:19:41;;;;;;;4.00;2.00;;;;;;;16.05;64.26;94172.36;1654799;86;21016;-47
2022/05/28 07:22:08;;;;;;;2.90;2.08;;;;;;;16.00;64.05;94180.03;1654665;86;20980;-47
2022/05/28 07:24:35;;;;;;;2.72;2.10;;;;;;;16.00;64.54;94171.72;1654488;86;21160;-47
2022/05/28 07:27:02;;;;;;;4.33;1.82;;;;;;;16.00;64.00;94166.78;1654344;85;21329;-49
2022/05/28 07:29:29;;;;;;;4.70;1.92;;;;;;;16.02;63.40;94163.66;1654399;86;21055;-47
2022/05/28 07:31:56;;;;;;;3.22;2.10;;;;;;;16.22;63.26;94164.89;1654555;86;21032;-48
2022/05/28 07:34:23;;;;;;;5.10;2.42;;;;;;;16.51;62.74;94147.90;1654544;86;21051;-47
2022/05/28 07:36:49;;;;;;;1.90;1.80;;;;;;;16.78;62.37;94147.22;1654553;86;21258;-47
2022/05/28 07:39:17;;;;;;;1.90;1.80;;;;;;;16.99;61.18;94155.47;1654525;86;20980;-47
2022/05/28 07:41:43;;;;;;;4.22;2.08;;;;;;;17.06;61.14;94149.44;1654699;86;21228;-47
2022/05/28 07:44:10;;;;;;;3.22;1.85;;;;;;;17.12;60.39;94155.75;1654999;86;20976;-47
2022/05/28 07:46:37;;;;;;;2.35;1.82;;;;;;;17.13;58.86;94155.23;1654575;86;20996;-48
2022/05/28 07:49:04;;;;;;;10.03;3.55;;;;;;;17.14;58.60;94155.39;1654626;86;21242;-48
2022/05/28 07:51:30;;;;;;;19.70;4.95;;;;;;;17.17;58.85;94149.44;1654439;86;21093;-49
2022/05/28 07:53:57;;;;;;;22.13;5.08;;;;;;;17.16;59.30;94143.12;1654621;86;21000;-47
2022/05/28 07:56:24;;;;;;;11.95;2.98;;;;;;;17.27;58.78;94141.73;1654466;86;21567;-48
2022/05/28 07:58:51;;;;;;;3.20;2.25;;;;;;;17.34;58.28;94137.73;1654653;86;21019;-48
2022/05/28 08:01:25;;;;;;;3.70;2.00;;;;;;;17.47;56.98;94133.81;1654511;86;21115;-48
2022/05/28 08:03:52;;;;;;;23.98;5.62;;;;;;;17.46;56.07;94126.74;1654847;86;21012;-47
2022/05/28 08:06:19;;;;;;;67.47;16.67;;;;;;;17.38;56.42;94115.36;1654482;86;21008;-47
2022/05/28 08:08:47;;;;;;;14.40;4.30;;;;;;;17.37;56.25;94121.42;1654724;86;21094;-48
2022/05/28 08:11:14;;;;;;;4.92;2.83;;;;;;;17.36;56.36;94119.28;1654626;86;21091;-47
2022/05/28 08:13:44;;;;;;;4.67;2.08;;;;;;;17.42;55.90;94115.12;1654553;86;21182;-49
2022/05/28 08:16:11;;;;;;;2.30;2.10;;;;;;;17.43;56.67;94115.98;1654679;85;20993;-49
2022/05/28 08:18:39;;;;;;;2.70;2.08;;;;;;;17.49;56.66;94120.16;1654596;86;20996;-48
2022/05/28 08:23:52;;;;;;;3.42;2.00;;;;;;;17.59;57.10;94113.06;1620410;86;21043;-49
2022/05/28 08:26:19;;;;;;;3.90;2.52;;;;;;;17.63;56.44;94119.14;1654474;86;21397;-49
2022/05/28 08:28:48;;;;;;;4.15;2.50;;;;;;;17.50;55.92;94121.03;1681154;85;21096;-48
2022/05/28 08:31:15;;;;;;;6.92;2.20;;;;;;;17.29;55.81;94125.95;1654550;86;21063;-48
2022/05/28 08:33:42;;;;;;;4.92;1.98;;;;;;;17.09;56.32;94110.91;1654729;86;20973;-50
2022/05/28 08:36:11;;;;;;;2.42;1.92;;;;;;;17.05;57.50;94107.59;1654631;86;21011;-48
2022/05/28 08:38:39;;;;;;;3.75;1.82;;;;;;;17.12;58.07;94100.16;1654657;86;21270;-48
2022/05/28 08:41:21;;;;;;;2.10;1.90;;;;;;;17.18;58.16;94099.52;1654520;85;20961;-47
2022/05/28 08:44:20;;;;;;;104.12;22.00;;;;;;;17.24;58.65;94100.30;1615035;86;20984;-50
2022/05/28 08:46:57;;;;;;;49.75;13.10;;;;;;;17.39;57.04;94093.24;1654442;86;21016;-48
2022/05/28 08:49:27;;;;;;;18.23;5.17;;;;;;;17.54;55.58;94097.14;1635968;86;21178;-49
2022/05/28 08:52:22;;;;;;;18.62;5.03;;;;;;;17.53;55.17;94099.80;1654567;85;21818;-49
2022/05/28 08:54:58;;;;;;;6.47;3.40;;;;;;;17.58;55.01;94108.77;1654807;86;21453;-48
2022/05/28 08:57:39;;;;;;;4.08;2.37;;;;;;;17.70;54.51;94100.53;1654476;86;21032;-49
2022/05/28 09:00:17;;;;;;;7.70;2.40;;;;;;;17.86;54.58;94091.41;1654690;86;21043;-48
2022/05/28 09:02:48;;;;;;;2.05;1.85;;;;;;;17.99;54.51;94087.45;1654582;86;21155;-49
2022/05/28 09:05:28;;;;;;;3.62;2.27;;;;;;;18.16;53.79;94083.34;1654851;86;21143;-48
2022/05/28 09:08:03;;;;;;;4.85;2.60;;;;;;;18.37;53.21;94076.19;1654461;86;20960;-47
2022/05/28 09:10:36;;;;;;;;;;;;;;;18.58;52.78;94080.91;1657318;86;20977;-49
2022/05/28 09:13:09;;;;;;;;;;;;;;;18.72;52.97;94076.27;1652219;86;20435;-48
2022/05/28 09:15:36;;;;;;;2.90;1.90;;;;;;;19.00;54.76;94074.07;1654456;85;20182;-49
2022/05/28 09:18:03;;;;;;;4.28;1.90;;;;;;;19.34;53.81;94070.53;1654530;86;21247;-48
2022/05/28 09:20:40;;;;;;;5.42;2.00;;;;;;;19.70;51.80;94064.27;1654392;86;21012;-47
2022/05/28 09:23:07;;;;;;;3.47;1.70;;;;;;;19.98;50.29;94056.34;1657704;86;21516;-47
2022/05/28 09:25:40;;;;;;;2.85;2.05;;;;;;;20.23;49.38;94058.63;1654493;86;21504;-49
2022/05/28 09:28:36;;;;;;;12.30;2.20;;;;;;;20.30;48.07;94056.63;1654895;85;21223;-48
2022/05/28 09:31:32;;;;;;;3.92;2.10;;;;;;;20.24;48.23;94054.55;1654508;86;21872;-48
2022/05/28 09:34:19;;;;;;;5.03;2.08;;;;;;;20.27;47.84;94057.68;1680935;85;20984;-48
2022/05/28 09:36:57;;;;;;;4.10;2.30;;;;;;;20.33;47.26;94067.52;1654647;86;21088;-48
2022/05/28 09:39:42;;;;;;;3.58;2.05;;;;;;;20.30;47.22;94059.42;1653919;85;21004;-48
2022/05/28 09:42:22;;;;;;;2.12;1.90;;;;;;;20.39;47.49;94054.22;1680256;84;21020;-49
2022/05/28 09:44:57;;;;;;;4.97;1.92;;;;;;;20.61;48.23;94047.59;1654399;86;21504;-49
2022/05/28 09:47:24;;;;;;;4.45;1.65;;;;;;;20.93;50.29;94032.41;1654520;86;21016;-48
2022/05/28 09:49:55;;;;;;;2.37;2.00;;;;;;;21.22;49.36;94034.89;1654775;86;20992;-48
2022/05/28 09:52:35;;;;;;;8.00;2.10;;;;;;;21.52;48.63;94035.42;1654674;86;21443;-48
2022/05/28 09:55:18;;;;;;;3.67;1.95;;;;;;;21.80;46.00;94029.46;1654576;85;21059;-48
2022/05/28 09:57:52;;;;;;;3.02;2.05;;;;;;;21.80;44.57;94025.27;1654449;86;21922;-49
2022/05/28 10:00:21;;;;;;;3.05;1.80;;;;;;;21.65;45.25;94022.88;1654725;86;20961;-48
2022/05/28 10:05:46;;;;;;;5.83;2.12;;;;;;;21.81;43.38;94024.63;1654550;86;20988;-49
2022/05/28 10:08:14;;;;;;;1.98;1.80;;;;;;;21.96;42.39;94029.03;1655245;84;21150;-50
2022/05/28 10:10:41;;;;;;;2.62;1.70;;;;;;;21.99;42.04;94029.39;1654709;86;21248;-48
2022/05/28 10:13:16;;;;;;;2.35;1.10;;;;;;;21.93;39.81;94020.31;1654399;86;21023;-47
2022/05/28 10:15:48;;;;;;;8.33;1.45;;;;;;;21.85;33.49;94009.66;1654689;85;21100;-47
2022/05/28 10:18:18;;;;;;;6.25;1.20;;;;;;;21.69;32.76;94014.91;1654501;86;21083;-50
2022/05/28 10:20:44;;;;;;;7.95;2.05;;;;;;;21.56;32.71;94002.25;1654514;86;21508;-48
2022/05/28 10:23:15;;;;;;;2.50;1.10;;;;;;;21.49;32.46;93991.70;1657550;86;21424;-48
2022/05/28 10:25:49;;;;;;;2.65;1.30;;;;;;;21.54;31.15;93992.24;1654412;86;20985;-48
2022/05/28 10:28:30;;;;;;;2.67;1.20;;;;;;;21.53;31.42;93997.10;1654540;86;21028;-47
2022/05/28 10:30:57;;;;;;;2.98;1.45;;;;;;;21.62;30.69;94001.53;1654459;86;21044;-48
2022/05/28 10:33:29;;;;;;;2.98;1.60;;;;;;;21.78;30.99;94005.45;1654489;86;21088;-47
2022/05/28 10:36:08;;;;;;;2.08;1.40;;;;;;;21.86;30.68;93996.50;1635546;86;21293;-48
2022/05/28 10:38:36;;;;;;;6.28;1.85;;;;;;;21.98;30.23;94002.67;1654256;86;21059;-48
2022/05/28 10:41:22;;;;;;;2.22;1.42;;;;;;;22.11;30.17;93985.94;1654797;86;21009;-48
2022/05/28 10:43:50;;;;;;;1.62;1.17;;;;;;;22.33;29.90;93993.88;1654472;86;21040;-49
2022/05/28 10:46:57;;;;;;;1.95;1.00;;;;;;;22.53;29.23;93987.64;1654513;86;21087;-48
2022/05/28 10:49:42;;;;;;;2.67;1.32;;;;;;;22.64;29.29;93984.58;1654559;86;21218;-49
2022/05/28 10:52:52;;;;;;;3.27;1.25;;;;;;;22.80;29.52;93976.45;1654451;85;20960;-49
2022/05/28 10:55:24;;;;;;;1.32;1.00;;;;;;;22.95;29.05;93993.44;1654394;86;20981;-51
2022/05/28 10:58:09;;;;;;;2.08;1.10;;;;;;;23.05;28.74;93983.91;1654921;86;21028;-48
2022/05/28 11:00:41;;;;;;;3.58;1.25;;;;;;;23.10;28.45;93975.36;1654632;86;21027;-49
2022/05/28 11:03:33;;;;;;;4.55;1.60;;;;;;;23.22;27.36;93975.87;1654911;86;21850;-50
2022/05/28 11:06:27;;;;;;;3.42;1.40;;;;;;;23.32;27.04;93979.05;1654464;85;21090;-48
2022/05/28 11:09:27;;;;;;;7.40;3.50;;;;;;;23.50;26.73;93976.67;1654702;86;21499;-48
2022/05/28 11:12:05;;;;;;;3.83;1.25;;;;;;;23.69;27.56;93961.75;1654374;86;21019;-49
2022/05/28 11:14:44;;;;;;;2.35;1.30;;;;;;;23.72;26.30;93964.86;1654461;86;21032;-49
2022/05/28 11:17:34;;;;;;;5.58;1.70;;;;;;;23.36;26.93;93964.67;1654500;86;21496;-49
2022/05/28 11:20:21;;;;;;;4.30;1.27;;;;;;;23.18;27.08;93967.78;1653474;85;21504;-50
2022/05/28 11:23:08;;;;;;;3.45;1.27;;;;;;;23.47;27.39;93973.56;1654537;86;21512;-50
2022/05/28 11:26:26;;;;;;;7.40;1.35;;;;;;;23.86;26.75;93972.56;1654506;86;21012;-48
2022/05/28 11:29:29;;;;;;;2.33;1.15;;;;;;;24.30;25.19;93974.88;1654550;85;21079;-48
2022/05/28 11:32:03;;;;;;;3.55;1.47;;;;;;;25.00;24.04;93976.12;1595372;89;21155;-50
2022/05/28 11:35:22;;;;;;;2.65;1.40;;;;;;;25.00;24.04;93976.12;1638293;86;20980;-51
2022/05/28 11:38:16;;;;;;;6.80;1.25;;;;;;;25.00;24.51;93968.44;1654016;86;20992;-48
2022/05/28 11:40:55;;;;;;;4.78;1.30;;;;;;;25.42;24.81;93975.93;1654521;86;21528;-50
2022/05/28 11:43:30;;;;;;;6.83;1.10;;;;;;;25.85;24.83;93980.02;1654836;86;21060;-48
2022/05/28 11:46:05;;;;;;;4.42;1.35;;;;;;;25.94;23.75;93983.75;1654493;86;22083;-50
2022/05/28 11:51:35;;;;;;;4.03;1.45;;;;;;;25.51;24.58;93971.89;1654492;86;21027;-54
2022/05/28 11:54:15;;;;;;;4.30;1.27;;;;;;;25.11;25.12;93976.52;1654814;85;21039;-48
2022/05/28 11:56:41;;;;;;;4.33;1.07;;;;;;;24.65;24.73;93988.20;1654481;85;21013;-48
2022/05/28 11:59:15;;;;;;;3.70;1.70;;;;;;;23.92;25.48;93989.38;1654566;86;21836;-48
2022/05/28 12:02:01;;;;;;;1.85;1.15;;;;;;;23.35;25.80;93989.17;1657601;86;21439;-48
2022/05/28 12:04:30;;;;;;;3.62;0.98;;;;;;;22.85;26.87;94002.20;1680868;85;20988;-48
2022/05/28 12:07:10;;;;;;;2.52;1.20;;;;;;;22.33;25.05;93995.95;1654807;86;21457;-48